Flight Track Log - Related Links

Times and Time Zones

All times are in EDT time to prevent confusion due to time zone crossing. See the UAL495 flight status page for this flight to view local times or setup timezone preferences in your user account.

Time Position Orientation Groundspeed Altitude Reporting Facility
EDT Latitude Longitude Course Direction KTS MPH feet Rate Location/Type
Wed 01:00:31 PM 39.9167 -104.6833 90° East 185 213 6,600  Level Denver TRACON
Wed 01:01:31 PM 39.9167 -104.6167 90° East 238 274 8,800 1,700 Climbing Denver TRACON
Wed 01:02:00 PM 39.7966 -104.1860 101° East  Level FlightAware
Wed 01:02:31 PM 39.8667 -104.5333 128° Southeast 276 318 10,000  Level Denver TRACON
Wed 01:03:00 PM 39.7689 -104.0280 105° East  Level FlightAware
Wed 01:03:12 PM 39.8406 -104.4669 117° Southeast 314 361 10,000  Level Denver Center
Wed 01:04:00 PM 39.7564 -103.8673 99° East  Level FlightAware
Wed 01:04:14 PM 39.8081 -104.3500 110° East 348 400 10,500  Level Denver Center
Wed 01:05:00 PM 39.7333 -103.7094 90° East  Level FlightAware
Wed 01:05:15 PM 39.7947 -104.2136 97° East 356 410 12,800  Level Denver Center
Wed 01:06:17 PM 39.7794 -104.0756 98° East 384 442 15,300 2,032 Climbing Denver Center
Wed 01:07:19 PM 39.7647 -103.9339 98° East 393 452 17,000 1,733 Climbing Denver Center
Wed 01:08:32 PM 39.7444 -103.7700 99° East 425 489 19,200 1,673 Climbing Denver Center
Wed 01:09:46 PM 39.7294 -103.5881 96° East 429 494 21,100 2,029 Climbing Denver Center
Wed 01:10:48 PM 39.7142 -103.3911 96° East 463 533 23,800 2,081 Climbing Denver Center
Wed 01:11:50 PM 39.7014 -103.2214 96° East 468 539 25,400 1,467 Climbing Denver Center
Wed 01:13:03 PM 39.6872 -103.0475 96° East 477 549 27,100 1,511 Climbing Denver Center
Wed 01:14:05 PM 39.6650 -102.8083 97° East 496 571 28,800 1,790 Climbing Denver Center
Wed 01:15:07 PM 39.6336 -102.6272 103° East 483 556 30,800 1,742 Climbing Denver Center
Wed 01:16:09 PM 39.5953 -102.4703 108° East 475 547 32,400 1,073 Climbing Denver Center
Wed 01:17:10 PM 39.5631 -102.3142 105° East 475 547 33,000 293 Climbing Denver Center
Wed 01:18:12 PM 39.5239 -102.1289 105° East 478 550 33,000  Level Denver Center
Wed 01:19:13 PM 39.4897 -101.9692 105° East 481 554 33,000  Level Denver Center
Wed 01:20:15 PM 39.4489 -101.7833 106° East 483 556 33,000  Level Denver Center
Wed 01:21:16 PM 39.4133 -101.6244 106° East 482 555 33,000  Level Denver Center
Wed 01:22:18 PM 39.3728 -101.4392 106° East 481 554 33,000  Level Denver Center
Wed 01:23:31 PM 39.3353 -101.2808 107° East 481 554 33,000  Level Denver Center
Wed 01:24:33 PM 39.2864 -101.0697 107° East 482 555 33,000  Level Denver Center
Wed 01:25:34 PM 39.2500 -100.9139 107° East 479 551 33,000  Level Denver Center
Wed 01:26:36 PM 39.2056 -100.7294 107° East 480 552 33,000  Level Denver Center
Wed 01:27:37 PM 39.1686 -100.5753 107° East 475 547 33,000  Level Denver Center
Wed 01:28:39 PM 39.1308 -100.4203 107° East 474 545 33,000  Level Denver Center
Wed 01:29:40 PM 39.0861 -100.2394 108° East 475 547 33,000  Level Denver Center
Wed 01:30:42 PM 39.0489 -100.0850 107° East 475 547 33,000  Level Denver Center
Wed 01:31:43 PM 39.0094 -99.9264 108° East 472 543 33,000  Level Denver Center
Wed 01:32:45 PM 38.9650 -99.7436 107° East 477 549 33,000  Level Denver Center
Wed 01:33:46 PM 38.9261 -99.5886 108° East 476 548 33,000  Level Denver Center
Wed 01:34:48 PM 38.8781 -99.4083 109° East 476 548 33,000  Level Denver Center
Wed 01:35:49 PM 38.8122 -99.2747 122° Southeast 461 531 33,000  Level Denver Center
Wed 01:36:51 PM 38.7453 -99.1433 123° Southeast 460 529 33,000  Level Denver Center
Wed 01:37:54 PM 38.6678 -98.9894 123° Southeast 461 531 33,000  Level Kansas Center
Wed 01:38:56 PM 38.5917 -98.8600 127° Southeast 456 525 33,000  Level Kansas Center
Wed 01:40:00 PM 38.5136 -98.7333 128° Southeast 453 521 33,000  Level Kansas Center
Wed 01:41:01 PM 38.4711 -98.5756 109° East 472 543 33,000  Level Kansas Center
Wed 01:42:04 PM 38.4336 -98.3753 103° East 482 555 33,000  Level Kansas Center
Wed 01:43:05 PM 38.4011 -98.2108 104° East 479 551 33,000  Level Kansas Center
Wed 01:44:09 PM 38.3689 -98.0444 104° East 479 551 33,000  Level Kansas Center
Wed 01:45:09 PM 38.3364 -97.8778 104° East 481 554 33,000  Level Kansas Center
Wed 01:46:11 PM 38.2842 -97.7239 113° Southeast 468 539 33,000  Level Kansas Center
Wed 01:47:14 PM 38.2303 -97.5708 114° Southeast 470 541 33,000  Level Kansas Center
Wed 01:48:15 PM 38.1764 -97.4189 114° Southeast 468 539 33,000  Level Kansas Center
Wed 01:49:19 PM 38.1217 -97.2672 115° Southeast 469 540 33,000  Level Kansas Center
Wed 01:50:22 PM 38.0678 -97.1153 114° Southeast 470 541 33,000  Level Kansas Center
Wed 01:51:22 PM 38.0019 -96.9350 115° Southeast 468 539 33,000  Level Kansas Center
Wed 01:52:24 PM 37.9533 -96.7825 112° Southeast 467 537 33,000  Level Kansas Center
Wed 01:53:27 PM 37.9047 -96.6297 112° Southeast 467 537 33,000  Level Kansas Center
Wed 01:54:28 PM 37.8692 -96.4725 106° East 464 534 33,000  Level Kansas Center
Wed 01:55:30 PM 37.8397 -96.3097 103° East 471 542 33,000  Level Kansas Center
Wed 01:56:34 PM 37.8117 -96.1475 102° East 473 544 33,000  Level Kansas Center
Wed 01:57:34 PM 37.7806 -95.9475 101° East 473 544 33,000  Level Kansas Center
Wed 01:58:38 PM 37.7564 -95.7806 100° East 479 551 33,000  Level Kansas Center
Wed 01:59:39 PM 37.7300 -95.6139 101° East 481 554 33,000  Level Kansas Center
Wed 02:00:42 PM 37.7042 -95.4483 101° East 481 554 33,000  Level Kansas Center
Wed 02:01:43 PM 37.6786 -95.2814 101° East 481 554 33,000  Level Kansas Center
Wed 02:02:44 PM 37.6519 -95.1136 101° East 484 557 33,000  Level Kansas Center
Wed 02:03:47 PM 37.6419 -94.9428 94° East 491 565 33,000  Level Kansas Center
Wed 02:04:49 PM 37.6592 -94.7372 84° East 492 566 33,000  Level Kansas Center
Wed 02:05:51 PM 37.6733 -94.5647 84° East 492 566 33,000  Level Kansas Center
Wed 02:06:52 PM 37.6881 -94.3875 84° East 493 567 33,000 432 Level Kansas Center
Wed 02:07:56 PM 37.7025 -94.2150 84° East 494 568 33,900 960 Climbing Kansas Center
Wed 02:08:57 PM 37.7167 -94.0436 84° East 492 566 35,000 532 Climbing Kansas Center
Wed 02:10:00 PM 37.7311 -93.8733 84° East 489 563 35,000  Level Kansas Center
Wed 02:11:01 PM 37.7442 -93.7019 84° East 489 563 35,000  Level Kansas Center
Wed 02:12:03 PM 37.7575 -93.5300 84° East 491 565 35,000  Level Kansas Center
Wed 02:13:04 PM 37.7739 -93.3233 84° East 492 566 35,000  Level Kansas Center
Wed 02:14:09 PM 37.7864 -93.1536 85° East 488 562 35,000  Level Kansas Center
Wed 02:15:09 PM 37.7989 -92.9853 85° East 483 556 35,000  Level Kansas Center
Wed 02:16:10 PM 37.8111 -92.8214 85° East 473 544 35,000  Level Kansas Center
Wed 02:17:14 PM 37.8231 -92.6556 85° East 465 535 35,000  Level Kansas Center
Wed 02:18:15 PM 37.8353 -92.4917 85° East 468 539 35,000  Level Kansas Center
Wed 02:19:18 PM 37.8450 -92.3306 86° East 466 536 35,000  Level Kansas Center
Wed 02:20:19 PM 37.8569 -92.1314 86° East 474 545 35,000  Level Kansas Center
Wed 02:21:20 PM 37.8675 -91.9797 85° East 471 542 35,000  Level Kansas Center
Wed 02:22:24 PM 37.8778 -91.8161 85° East 469 540 35,000  Level Kansas Center
Wed 02:23:25 PM 37.8922 -91.6208 85° East 466 536 35,000  Level Kansas Center
Wed 02:24:28 PM 37.9019 -91.4561 86° East 469 540 35,000  Level Kansas Center
Wed 02:25:30 PM 37.9103 -91.2914 86° East 468 539 35,000  Level Kansas Center
Wed 02:26:31 PM 37.9192 -91.1264 86° East 469 540 35,000  Level Kansas Center
Wed 02:27:32 PM 37.9300 -90.9531 85° East 470 541 35,000  Level Kansas Center
Wed 02:28:35 PM 37.9383 -90.7869 86° East 474 545 35,000  Level Kansas Center
Wed 02:29:36 PM 37.9464 -90.6197 86° East 478 550 35,000  Level Kansas Center
Wed 02:30:40 PM 37.9558 -90.4536 86° East 477 549 35,000  Level Kansas Center
Wed 02:31:40 PM 37.9667 -90.2550 86° East 482 555 35,000  Level Kansas Center
Wed 02:32:44 PM 37.9742 -90.0700 87° East 487 560 35,000  Level Kansas Center
Wed 02:33:44 PM 37.9822 -89.8992 87° East 488 562 35,000  Level Kansas Center
Wed 02:34:46 PM 37.9908 -89.7167 87° East 485 558 35,000  Level Kansas Center
Wed 02:35:50 PM 37.9992 -89.5458 86° East 487 560 35,000  Level Kansas Center
Wed 02:36:50 PM 38.0067 -89.3608 87° East 489 563 35,000  Level Kansas Center
Wed 02:37:51 PM 38.0133 -89.1903 87° East 487 560 35,000  Level Kansas Center
Wed 02:38:55 PM 38.0200 -89.0214 87° East 490 564 35,000  Level Kansas Center
Wed 02:39:55 PM 38.0253 -88.8497 88° East 490 564 35,000  Level Kansas Center
Wed 02:40:59 PM 38.0328 -88.6794 87° East 493 567 35,000  Level Kansas Center
Wed 02:42:00 PM 38.0425 -88.4711 87° East 491 565 35,000  Level Kansas Center
Wed 02:43:01 PM 38.0472 -88.2944 88° East 497 572 35,000  Level Kansas Center
Wed 02:44:03 PM 38.0517 -88.1200 88° East 496 571 35,000  Level Kansas Center
Wed 02:45:06 PM 38.0567 -87.9436 88° East 498 573 35,000  Level Kansas Center
Wed 02:46:07 PM 38.0625 -87.7683 88° East 498 573 35,000  Level Kansas Center
Wed 02:46:22 PM 38.0636 -87.7336 88° East 497 572 35,000  Level Indianapolis Center
Wed 02:47:24 PM 38.0694 -87.5247 88° East 495 570 35,000  Level Indianapolis Center
Wed 02:48:26 PM 38.0739 -87.3503 88° East 496 571 35,000  Level Indianapolis Center
Wed 02:49:28 PM 38.0775 -87.1778 88° East 496 571 35,000  Level Indianapolis Center
Wed 02:50:30 PM 38.0819 -87.0047 88° East 498 573 35,000  Level Indianapolis Center
Wed 02:51:32 PM 38.0850 -86.8319 89° East 497 572 35,000  Level Indianapolis Center
Wed 02:52:33 PM 38.0889 -86.6236 89° East 496 571 35,000 98 Level Indianapolis Center
Wed 02:53:35 PM 38.0922 -86.4503 89° East 494 568 35,200 968 Climbing Indianapolis Center
Wed 02:54:37 PM 38.0947 -86.2822 89° East 478 550 37,000 871 Climbing Indianapolis Center
Wed 02:55:39 PM 38.0994 -86.1231 88° East 455 524 37,000  Level Indianapolis Center
Wed 02:56:41 PM 38.1297 -85.9575 77° East 479 551 37,000  Level Indianapolis Center
Wed 02:57:42 PM 38.1464 -85.7881 83° East 483 556 37,000  Level Indianapolis Center
Wed 02:58:44 PM 38.1592 -85.6183 84° East 483 556 37,000  Level Indianapolis Center
Wed 02:59:46 PM 38.1700 -85.4492 85° East 482 555 37,000  Level Indianapolis Center
Wed 03:00:48 PM 38.1794 -85.2478 87° East 478 550 37,000  Level Indianapolis Center
Wed 03:01:50 PM 38.1917 -85.0706 85° East 484 557 37,000  Level Indianapolis Center
Wed 03:02:52 PM 38.2019 -84.8997 86° East 488 562 37,000  Level Indianapolis Center
Wed 03:03:54 PM 38.2131 -84.7267 85° East 490 564 37,000  Level Indianapolis Center
Wed 03:04:56 PM 38.2228 -84.5536 86° East 492 566 37,000  Level Indianapolis Center
Wed 03:05:58 PM 38.2325 -84.3778 86° East 497 572 37,000  Level Indianapolis Center
Wed 03:07:00 PM 38.2431 -84.1747 86° East 495 570 37,000  Level Indianapolis Center
Wed 03:08:02 PM 38.2519 -84.0019 86° East 491 565 37,000  Level Indianapolis Center
Wed 03:09:04 PM 38.2614 -83.8272 86° East 494 568 37,000  Level Indianapolis Center
Wed 03:10:06 PM 38.2703 -83.6539 86° East 492 566 37,000  Level Indianapolis Center
Wed 03:11:07 PM 38.2789 -83.4794 86° East 491 565 37,000  Level Indianapolis Center
Wed 03:12:09 PM 38.2883 -83.3064 86° East 489 563 37,000  Level Indianapolis Center
Wed 03:13:11 PM 38.2961 -83.1050 87° East 488 562 37,000  Level Indianapolis Center
Wed 03:14:13 PM 38.3042 -82.9344 87° East 484 557 37,000  Level Indianapolis Center
Wed 03:15:15 PM 38.3111 -82.7642 87° East 482 555 37,000  Level Indianapolis Center
Wed 03:16:17 PM 38.3186 -82.5919 87° East 486 559 37,000  Level Indianapolis Center
Wed 03:17:19 PM 38.3253 -82.4061 87° East 485 558 37,000  Level Indianapolis Center
Wed 03:18:21 PM 38.3333 -82.2347 87° East 487 560 37,000  Level Indianapolis Center
Wed 03:19:23 PM 38.3403 -82.0633 87° East 486 559 37,000  Level Indianapolis Center
Wed 03:20:25 PM 38.3461 -81.8900 87° East 490 564 37,000  Level Indianapolis Center
Wed 03:21:28 PM 38.3494 -81.7172 89° East 493 567 37,000  Level Indianapolis Center
Wed 03:22:30 PM 38.3419 -81.5089 93° East 496 571 37,000  Level Indianapolis Center
Wed 03:23:32 PM 38.3350 -81.3353 93° East 497 572 37,000  Level Indianapolis Center
Wed 03:24:34 PM 38.3286 -81.1650 93° East 488 562 37,000  Level Indianapolis Center
Wed 03:25:15 PM 38.3219 -81.0544 94° East 513 590 37,000 -1,248 Level Washington Center
Wed 03:26:15 PM 38.3172 -80.8822 92° East 499 574 34,900 -1,950 Descending Washington Center
Wed 03:27:15 PM 38.3103 -80.7097 93° East 499 574 33,100 -950 Descending Washington Center
Wed 03:28:15 PM 38.3047 -80.5397 92° East 494 568 33,000 -50 Descending Washington Center
Wed 03:29:15 PM 38.3208 -80.3531 84° East 482 555 33,000 -450 Level Washington Center
Wed 03:30:15 PM 38.3522 -80.1881 76° East 476 548 32,100 -1,000 Descending Washington Center
Wed 03:31:15 PM 38.3878 -80.0181 75° East 482 555 31,000 -1,200 Descending Washington Center
Wed 03:32:15 PM 38.4250 -79.8561 74° East 482 555 29,700 -1,250 Descending Washington Center
Wed 03:33:15 PM 38.4589 -79.7228 72° East 464 534 28,500 -1,250 Descending Washington Center
Wed 03:34:15 PM 38.4911 -79.5706 75° East 447 514 27,200 -2,050 Descending Washington Center
Wed 03:35:15 PM 38.5250 -79.4264 73° East 433 498 24,400 -2,250 Descending Washington Center
Wed 03:36:15 PM 38.5500 -79.2897 77° East 410 472 22,700 -1,700 Descending Washington Center
Wed 03:37:15 PM 38.5714 -79.1342 80° East 404 465 21,000 -1,600 Descending Washington Center
Wed 03:38:15 PM 38.5894 -79.0181 79° East 383 441 19,500 -1,800 Descending Washington Center
Wed 03:39:15 PM 38.6164 -78.8733 77° East 378 435 17,400 -1,850 Descending Washington Center
Wed 03:40:15 PM 38.6400 -78.7653 74° East 364 419 15,800 -1,850 Descending Washington Center
Wed 03:41:15 PM 38.6706 -78.6364 73° East 344 396 13,700 -2,200 Descending Washington Center
Wed 03:42:15 PM 38.6917 -78.5389 74° East 318 366 11,400 -1,350 Descending Washington Center
Wed 03:43:15 PM 38.7197 -78.4200 73° East 313 360 11,000 -500 Descending Washington Center
Wed 03:44:15 PM 38.7633 -78.3314 58° Northeast 297 342 10,400 -900 Descending Washington Center
Wed 03:45:15 PM 38.8028 -78.2475 59° Northeast 296 341 9,200 -700 Descending Washington Center
Wed 03:46:15 PM 38.8383 -78.1422 67° East 289 333 9,000 -300 Descending Washington Center
Wed 03:47:15 PM 38.8697 -78.0472 67° East 294 338 8,600 -900 Descending Washington Center
Wed 03:48:15 PM 38.9006 -77.9522 67° East 294 338 7,200 -1,250 Descending Washington Center
Wed 03:49:15 PM 38.9336 -77.8600 65° Northeast 289 333 6,100 -550 Descending Washington Center
Wed 03:50:15 PM 38.9647 -77.7647 67° East 289 333 6,100  Level Washington Center
Wed 03:51:15 PM 38.9539 -77.6631 98° East 273 314 6,100 -46 Level Washington Center
Wed 03:52:25 PM 38.8833 -77.5833 139° Southeast 276 318 6,000 -132 Descending Potomac TRACON
Wed 03:53:31 PM 38.8167 -77.5667 169° South 233 268 5,800 -843 Descending Potomac TRACON
Wed 03:54:26 PM 38.7667 -77.5667 180° South 232 267 4,300 -1,200 Descending Potomac TRACON
Wed 03:55:26 PM 38.7833 -77.5000 72° East 226 260 3,500 -800 Descending Potomac TRACON

Login

Don't have an account? Register now (free) for customized features, flight alerts, and more!